createdAt,value
2023-01-28T00:00:22.497Z,70.80
2023-01-28T00:05:26.090Z,70.60
2023-01-28T00:10:29.521Z,70.60
2023-01-28T00:15:34.863Z,70.80
2023-01-28T00:20:38.285Z,70.60
2023-01-28T00:25:41.585Z,70.40
2023-01-28T00:30:46.354Z,70.60
2023-01-28T00:35:49.802Z,70.60
2023-01-28T00:40:53.290Z,70.70
2023-01-28T00:45:58.130Z,70.60
2023-01-28T00:51:04.365Z,70.50
2023-01-28T00:56:09.677Z,70.60
2023-01-28T01:01:16.724Z,70.60
2023-01-28T01:06:20.290Z,70.50
2023-01-28T01:11:23.900Z,70.50
2023-01-28T01:16:32.382Z,70.40
2023-01-28T01:21:37.237Z,70.60
2023-01-28T01:26:40.905Z,70.70
2023-01-28T01:31:45.981Z,70.60
2023-01-28T01:36:49.602Z,70.60
2023-01-28T01:41:55.626Z,70.60
2023-01-28T01:47:01.590Z,70.60
2023-01-28T01:52:10.335Z,70.60
2023-01-28T01:57:18.196Z,70.60
2023-01-28T02:02:23.573Z,70.60
2023-01-28T02:07:27.325Z,70.80
2023-01-28T02:12:37.865Z,70.70
2023-01-28T02:17:43.557Z,70.90
2023-01-28T02:23:22.636Z,70.80
2023-01-28T02:28:33.927Z,71.50
2023-01-28T02:33:42.263Z,70.60
2023-01-28T02:38:50.194Z,70.70
2023-01-28T02:43:55.128Z,70.60
2023-01-28T02:48:58.851Z,70.60
2023-01-28T02:54:10.847Z,70.60
2023-01-28T02:59:34.257Z,70.60
2023-01-28T03:04:47.676Z,70.50
2023-01-28T03:09:53.436Z,70.50
2023-01-28T03:15:17.986Z,70.40
2023-01-28T03:20:40.644Z,70.50
2023-01-28T03:26:06.473Z,70.40
2023-01-28T03:31:31.925Z,70.50
2023-01-28T03:36:49.566Z,70.60
2023-01-28T03:42:15.593Z,70.60
2023-01-28T03:47:46.262Z,70.60
2023-01-28T03:52:49.796Z,70.60
2023-01-28T03:58:05.856Z,70.40
2023-01-28T04:03:16.433Z,70.50
2023-01-28T04:08:29.716Z,70.50
2023-01-28T04:13:53.578Z,70.50
2023-01-28T04:19:00.395Z,70.70
2023-01-28T04:24:04.230Z,70.80
2023-01-28T04:29:07.982Z,70.80
2023-01-28T04:34:14.609Z,70.80
2023-01-28T04:39:39.362Z,70.80
2023-01-28T04:45:12.991Z,71.00
2023-01-28T04:50:35.732Z,71.00
2023-01-28T04:56:11.326Z,71.00
2023-01-28T05:01:15.160Z,70.90
2023-01-28T05:06:20.073Z,70.90
2023-01-28T05:11:23.995Z,71.00
2023-01-28T05:16:34.409Z,71.20
2023-01-28T05:21:40.511Z,71.10
2023-01-28T05:26:57.963Z,71.20
2023-01-28T05:32:01.780Z,71.10
2023-01-28T05:37:07.791Z,71.30
2023-01-28T05:42:15.426Z,71.50
2023-01-28T05:47:23.253Z,71.60
2023-01-28T05:52:28.125Z,71.70
2023-01-28T05:57:31.742Z,71.70
2023-01-28T06:02:35.427Z,71.70
2023-01-28T06:07:41.751Z,71.80
2023-01-28T06:12:47.723Z,72.10
2023-01-28T06:18:09.592Z,72.20
2023-01-28T06:23:14.931Z,72.10
2023-01-28T06:28:18.764Z,72.40
2023-01-28T06:33:22.753Z,72.30
2023-01-28T06:38:27.806Z,72.50
2023-01-28T06:43:31.210Z,72.50
2023-01-28T06:48:34.647Z,72.30
2023-01-28T06:53:39.627Z,72.20
2023-01-28T06:58:43.456Z,72.10
2023-01-28T07:03:47.363Z,72.10
2023-01-28T07:08:52.127Z,72.10
2023-01-28T07:13:55.621Z,72.30
2023-01-28T07:18:59.173Z,72.20
2023-01-28T07:24:05.363Z,72.10
2023-01-28T07:29:09.911Z,72.10
2023-01-28T07:34:13.579Z,72.10
2023-01-28T07:39:18.303Z,72.20
2023-01-28T07:44:22.117Z,72.20
2023-01-28T07:49:25.455Z,72.30
2023-01-28T07:54:30.589Z,72.30
2023-01-28T07:59:33.966Z,72.40
2023-01-28T08:04:38.370Z,72.50
2023-01-28T08:09:43.184Z,72.40
2023-01-28T08:14:46.606Z,72.40
2023-01-28T08:19:50.125Z,72.40
2023-01-28T08:24:55.358Z,72.40
2023-01-28T08:29:58.761Z,73.20
2023-01-28T08:35:02.341Z,73.10
2023-01-28T08:40:08.678Z,73.50
2023-01-28T08:45:13.066Z,73.30
2023-01-28T08:50:17.266Z,73.00
2023-01-28T08:55:22.401Z,72.90
2023-01-28T09:00:26.129Z,72.90
2023-01-28T09:05:30.140Z,73.50
2023-01-28T09:10:35.322Z,73.20
2023-01-28T09:15:39.053Z,72.90
2023-01-28T09:20:42.789Z,72.70
2023-01-28T09:25:47.704Z,72.60
2023-01-28T09:30:51.457Z,72.50
2023-01-28T09:35:54.944Z,72.20
2023-01-28T09:41:00.256Z,72.60
2023-01-28T09:46:06.426Z,72.50
2023-01-28T09:51:12.992Z,72.40
2023-01-28T09:56:27.024Z,72.40
2023-01-28T10:01:41.297Z,72.20
2023-01-28T10:06:56.634Z,72.30
2023-01-28T10:12:14.843Z,72.40
2023-01-28T10:17:23.379Z,72.30
2023-01-28T10:22:32.203Z,72.40
2023-01-28T10:27:39.176Z,72.20
2023-01-28T10:32:48.344Z,73.30
2023-01-28T10:37:54.426Z,73.00
2023-01-28T10:42:59.131Z,72.80
2023-01-28T10:48:08.292Z,72.40
2023-01-28T10:53:11.657Z,72.40
2023-01-28T10:58:21.706Z,72.20
2023-01-28T11:03:27.410Z,72.00
2023-01-28T11:08:43.598Z,72.10
2023-01-28T11:13:54.955Z,72.00
2023-01-28T11:19:02.173Z,72.20
2023-01-28T11:24:14.901Z,72.20
2023-01-28T11:29:29.201Z,72.10
2023-01-28T11:34:36.280Z,72.20
2023-01-28T11:39:39.777Z,72.20
2023-01-28T11:44:44.531Z,72.20
2023-01-28T11:50:08.375Z,72.00
2023-01-28T11:55:24.342Z,72.20
2023-01-28T12:00:40.283Z,72.20
2023-01-28T12:05:50.569Z,72.20
2023-01-28T12:11:10.573Z,72.30
2023-01-28T12:16:35.796Z,72.30
2023-01-28T12:21:54.936Z,72.40
2023-01-28T12:27:08.451Z,72.40
2023-01-28T12:32:31.765Z,72.10
2023-01-28T12:37:46.703Z,72.10
2023-01-28T12:42:54.533Z,72.20
2023-01-28T12:48:02.711Z,71.90
2023-01-28T12:53:21.080Z,72.00
2023-01-28T12:58:34.582Z,72.40
2023-01-28T13:03:44.935Z,72.20
2023-01-28T13:08:50.551Z,72.10
2023-01-28T13:13:54.531Z,72.20
2023-01-28T13:19:09.730Z,72.20
2023-01-28T13:24:31.803Z,72.30
2023-01-28T13:29:35.971Z,72.40
2023-01-28T13:34:44.336Z,72.40
2023-01-28T13:39:51.493Z,72.50
2023-01-28T13:44:55.443Z,72.40
2023-01-28T13:50:04.180Z,72.50
2023-01-28T13:55:30.380Z,72.40
2023-01-28T14:00:56.279Z,72.40
2023-01-28T14:06:33.203Z,72.20
2023-01-28T14:12:10.029Z,72.10
2023-01-28T14:17:21.720Z,72.20
2023-01-28T14:22:27.238Z,72.00
2023-01-28T14:27:36.951Z,72.00
2023-01-28T14:32:47.677Z,71.80
2023-01-28T14:37:53.470Z,71.90
2023-01-28T14:42:58.952Z,71.80
2023-01-28T14:48:21.252Z,71.80
2023-01-28T14:53:53.577Z,71.60
2023-01-28T14:59:02.102Z,71.80
2023-01-28T15:04:05.983Z,71.60
2023-01-28T15:09:15.083Z,71.70
2023-01-28T15:14:27.401Z,71.80
2023-01-28T15:19:34.796Z,71.80
2023-01-28T15:24:44.322Z,72.00
2023-01-28T15:29:56.878Z,72.00
2023-01-28T15:35:02.300Z,72.00
2023-01-28T15:40:09.600Z,72.00
2023-01-28T15:45:18.752Z,72.20
2023-01-28T15:50:24.639Z,72.00
2023-01-28T15:55:39.427Z,71.90
2023-01-28T16:00:43.148Z,72.20
2023-01-28T16:05:58.622Z,72.20
2023-01-28T16:11:08.942Z,72.40
2023-01-28T16:16:18.925Z,72.40
2023-01-28T16:21:25.422Z,72.30
2023-01-28T16:26:33.337Z,72.40
2023-01-28T16:31:39.626Z,72.20
2023-01-28T16:36:45.314Z,72.10
2023-01-28T16:41:57.298Z,72.20
2023-01-28T16:47:04.379Z,72.10
2023-01-28T16:52:08.585Z,72.20
2023-01-28T16:57:15.805Z,72.40
2023-01-28T17:02:19.177Z,72.30
2023-01-28T17:07:22.553Z,72.30
2023-01-28T17:12:27.649Z,72.40
2023-01-28T17:17:31.943Z,72.50
2023-01-28T17:22:36.812Z,72.10
2023-01-28T17:27:42.196Z,72.20
2023-01-28T17:32:46.535Z,72.30
2023-01-28T17:37:56.440Z,72.30
2023-01-28T17:43:02.341Z,72.40
2023-01-28T17:48:07.775Z,72.40
2023-01-28T17:53:13.002Z,72.40
2023-01-28T17:58:19.286Z,72.30
2023-01-28T18:03:26.778Z,72.20
2023-01-28T18:08:31.463Z,72.30
2023-01-28T18:13:40.223Z,72.40
2023-01-28T18:18:44.691Z,72.30
2023-01-28T18:23:48.647Z,72.40
2023-01-28T18:28:59.034Z,72.40
2023-01-28T18:34:06.360Z,72.40
2023-01-28T18:39:13.805Z,72.40
2023-01-28T18:44:18.868Z,72.40
2023-01-28T18:49:23.192Z,72.20
2023-01-28T18:54:28.744Z,72.20
2023-01-28T18:59:38.273Z,72.20
2023-01-28T19:04:43.096Z,72.20
2023-01-28T19:09:47.734Z,72.00
2023-01-28T19:15:08.955Z,72.30
2023-01-28T19:20:15.019Z,72.20
2023-01-28T19:25:24.203Z,72.20
2023-01-28T19:30:31.411Z,72.20
2023-01-28T19:35:37.255Z,72.20
2023-01-28T19:40:42.766Z,72.00
2023-01-28T19:45:58.156Z,72.10
2023-01-28T19:51:09.053Z,72.00
2023-01-28T19:56:15.917Z,72.00
2023-01-28T20:01:23.997Z,72.20
2023-01-28T20:06:30.888Z,72.00
2023-01-28T20:11:35.955Z,72.10
2023-01-28T20:16:40.943Z,72.00
2023-01-28T20:21:46.763Z,72.00
2023-01-28T20:26:51.267Z,71.90
2023-01-28T20:32:13.686Z,72.10
2023-01-28T20:37:20.190Z,72.00
2023-01-28T20:42:24.814Z,72.00
2023-01-28T20:47:31.536Z,72.20
2023-01-28T20:52:41.563Z,71.80
2023-01-28T20:57:48.116Z,71.80
2023-01-28T21:02:54.693Z,71.70
2023-01-28T21:07:59.419Z,71.60
2023-01-28T21:13:03.041Z,71.40
2023-01-28T21:18:08.787Z,71.40
2023-01-28T21:23:15.143Z,71.40
2023-01-28T21:28:20.841Z,71.40
2023-01-28T21:33:26.025Z,72.20
2023-01-28T21:38:30.065Z,71.10
2023-01-28T21:43:33.995Z,71.10
2023-01-28T21:48:38.883Z,71.10
2023-01-28T21:53:43.724Z,71.20
2023-01-28T21:59:04.683Z,71.10
2023-01-28T22:04:09.604Z,71.10
2023-01-28T22:09:14.163Z,71.10
2023-01-28T22:14:18.031Z,72.00
2023-01-28T22:19:22.928Z,70.90
2023-01-28T22:24:26.635Z,70.90
2023-01-28T22:29:30.025Z,71.00
2023-01-28T22:34:34.725Z,70.90
2023-01-28T22:39:38.008Z,70.90
2023-01-28T22:44:41.332Z,72.00
2023-01-28T22:49:46.082Z,71.10
2023-01-28T22:54:51.649Z,71.10
2023-01-28T23:00:00.345Z,71.10
2023-01-28T23:05:05.736Z,71.30
2023-01-28T23:10:10.781Z,71.10
2023-01-28T23:15:31.853Z,71.10
2023-01-28T23:20:56.864Z,70.90
2023-01-28T23:26:00.396Z,70.90
2023-01-28T23:31:04.007Z,71.00
2023-01-28T23:36:09.600Z,70.90
2023-01-28T23:41:12.996Z,70.90
2023-01-28T23:46:16.956Z,70.80
2023-01-28T23:51:22.972Z,70.70
2023-01-28T23:56:26.233Z,70.60
